Brisbane - Nearby METAR Reports

YBBN - Brisbane Intl Ar, Australia
Distance from station: NNE 11km
Updated: 20/01/2021 01:30
Mostly cloudy
Mostly cloudy
 Wind from S
Wind: S 11 km/h
Temperature: 23°C
Dew Point: 19°C
Humidity: 78%
Barometer: 1015 hPa
Clouds: Mostly cloudy
Visibility: 10 km
Cloud details: Few Clouds 1219 m
Mostly cloudy 2591 m
2021/01/19 15:30 YBBN 191530Z 17006KT 9999 FEW040 BKN085 23/19 Q1015
YAMB - Amberley, Australia
Distance from station: WSW 42km
Updated: 20/01/2021 01:30
Mostly cloudy
Mostly cloudy
 Wind from calm
Wind: Calm
Temperature: 21°C
Dew Point: 19°C
Humidity: 88%
Barometer: 1015 hPa
Clouds: Mostly cloudy
Visibility: 10 km
Cloud details: Partly cloudy 1280 m
Mostly cloudy 1615 m
2021/01/19 15:30 YAMB 191530Z AUTO 00000KT 9999 // SCT042 BKN053 21/19 Q1015
 
YBCG - Coolangatta Aws, Australia
Distance from station: SSE 102km
Updated: 20/01/2021 01:30
Partly cloudy
Partly cloudy
 Wind from SSE
Wind: SSE 17 km/h
Temperature: 24°C
Dew Point: 19°C
Humidity: 74%
Barometer: 1016 hPa
Clouds: Partly cloudy
Visibility: 10 km
Cloud details: Partly cloudy 792 m
Partly cloudy 1006 m
Partly cloudy 1433 m
2021/01/19 15:30 YBCG 191530Z AUTO 16009KT 9999 // SCT026 SCT033 SCT047 24/19 Q1016